Time;durP1;ratioP1;P1;durP2;ratioP2;P2;SDS_P1;SDS_P2;PMS_P1;PMS_P2;Temp;Humidity;BMP_temperature;BMP_pressure;BME280_temperature;BME280_humidity;BME280_pressure;Samples;Min_cycle;Max_cycle;Signal;HPM_P1;HPM_P2
2021/01/25 00:00:30;;;;;;;18.93;10.10;;;-2.50;99.80;;;;;;5034508;28;20508;-61
2021/01/25 00:02:56;;;;;;;22.53;10.20;;;-2.50;99.80;;;;;;5030366;28;20170;-61
2021/01/25 00:05:22;;;;;;;13.30;9.03;;;-2.50;99.90;;;;;;5020444;28;20264;-59
2021/01/25 00:07:48;;;;;;;17.63;9.83;;;-2.40;99.90;;;;;;5008850;28;20796;-59
2021/01/25 00:10:13;;;;;;;16.80;9.80;;;-2.40;99.90;;;;;;5009505;28;20191;-58
2021/01/25 00:12:39;;;;;;;17.90;10.03;;;-2.40;99.90;;;;;;5007639;28;20225;-58
2021/01/25 00:15:06;;;;;;;24.77;8.73;;;-2.40;99.90;;;;;;5008447;28;20256;-58
2021/01/25 00:17:32;;;;;;;18.00;8.90;;;-2.40;99.90;;;;;;5009200;28;20220;-59
2021/01/25 00:19:57;;;;;;;18.60;8.93;;;-2.40;99.70;;;;;;5006975;28;20826;-58
2021/01/25 00:22:25;;;;;;;16.77;9.03;;;-2.40;99.70;;;;;;4994120;28;20190;-59
2021/01/25 00:24:51;;;;;;;17.53;9.60;;;-2.40;99.70;;;;;;5005779;28;20179;-58
2021/01/25 00:27:16;;;;;;;19.10;9.10;;;-2.40;99.90;;;;;;5007912;28;20907;-59
2021/01/25 00:29:42;;;;;;;17.30;10.50;;;-2.50;99.80;;;;;;4992024;28;20200;-59
2021/01/25 00:32:08;;;;;;;18.20;9.27;;;-2.50;99.90;;;;;;4994530;28;20252;-59
2021/01/25 00:34:34;;;;;;;15.37;9.37;;;-2.40;99.90;;;;;;4999961;28;20203;-58
2021/01/25 00:36:59;;;;;;;14.73;9.20;;;-2.40;99.90;;;;;;4995488;28;20305;-58
2021/01/25 00:39:25;;;;;;;16.60;8.70;;;-2.40;99.90;;;;;;5000852;28;20175;-58
2021/01/25 00:41:51;;;;;;;17.70;8.63;;;-2.40;99.90;;;;;;5004373;28;20212;-59
2021/01/25 00:44:17;;;;;;;16.57;8.77;;;-2.40;99.90;;;;;;5009062;28;20192;-57
2021/01/25 00:46:43;;;;;;;22.67;9.30;;;-2.40;99.90;;;;;;4993637;28;20454;-58
2021/01/25 00:49:09;;;;;;;14.27;8.43;;;-2.40;99.90;;;;;;5011168;28;20864;-59
2021/01/25 00:51:34;;;;;;;16.17;8.43;;;-2.40;99.90;;;;;;5012727;28;20177;-58
2021/01/25 00:54:00;;;;;;;15.53;8.87;;;-2.40;99.80;;;;;;5004959;28;20185;-58
2021/01/25 00:56:26;;;;;;;17.90;9.20;;;-2.40;99.90;;;;;;5006258;28;20204;-58
2021/01/25 00:58:51;;;;;;;14.17;8.43;;;-2.40;99.90;;;;;;4988047;28;20259;-59
2021/01/25 01:01:17;;;;;;;15.80;8.70;;;-2.40;99.90;;;;;;5007245;28;20169;-58
2021/01/25 01:03:43;;;;;;;17.03;9.20;;;-2.40;99.80;;;;;;5019383;28;20204;-59
2021/01/25 01:06:08;;;;;;;14.63;9.27;;;-2.50;99.70;;;;;;5024147;28;20200;-60
2021/01/25 01:08:34;;;;;;;21.13;9.70;;;-2.50;99.60;;;;;;5008501;28;20220;-58
2021/01/25 01:11:00;;;;;;;16.37;10.03;;;-2.50;99.80;;;;;;5003090;28;20190;-59
2021/01/25 01:13:25;;;;;;;14.80;8.87;;;-2.50;99.90;;;;;;5005850;28;20209;-60
2021/01/25 01:15:52;;;;;;;16.40;8.60;;;-2.50;99.90;;;;;;5008067;28;20272;-58
2021/01/25 01:18:17;;;;;;;20.97;10.13;;;-2.50;99.90;;;;;;5006276;28;20577;-59
2021/01/25 01:20:43;;;;;;;17.67;9.50;;;-2.40;99.90;;;;;;5006038;28;20671;-59
2021/01/25 01:23:09;;;;;;;26.80;9.40;;;-2.40;99.90;;;;;;5007299;28;20185;-59
2021/01/25 01:25:34;;;;;;;16.17;9.80;;;-2.40;99.90;;;;;;5010032;28;20205;-58
2021/01/25 01:28:00;;;;;;;18.67;10.93;;;-2.40;99.90;;;;;;5009198;28;20203;-59
2021/01/25 01:30:26;;;;;;;20.27;10.77;;;-2.40;99.90;;;;;;5009125;28;20193;-58
2021/01/25 01:32:53;;;;;;;22.53;10.80;;;-2.40;99.90;;;;;;5010314;28;20574;-59
2021/01/25 01:35:18;;;;;;;13.50;9.27;;;-2.40;99.90;;;;;;5002597;28;20460;-58
2021/01/25 01:37:44;;;;;;;17.70;8.73;;;-2.40;99.90;;;;;;5024543;28;20471;-59
2021/01/25 01:40:12;;;;;;;21.37;10.77;;;-2.40;99.90;;;;;;5013533;28;20648;-58
2021/01/25 01:42:39;;;;;;;15.43;9.73;;;-2.40;99.90;;;;;;5007257;28;20194;-58
2021/01/25 01:45:07;;;;;;;20.27;9.80;;;-2.40;99.90;;;;;;5008887;28;20412;-58
2021/01/25 01:47:34;;;;;;;20.50;9.77;;;-2.40;99.90;;;;;;5003940;28;20435;-57
2021/01/25 01:50:01;;;;;;;18.47;10.23;;;-2.40;99.90;;;;;;5007480;28;20946;-59
2021/01/25 01:52:27;;;;;;;18.63;10.23;;;-2.40;99.90;;;;;;5012183;28;20443;-58
2021/01/25 01:55:01;;;;;;;22.70;10.20;;;-2.50;99.90;;;;;;5005610;28;20452;-59
2021/01/25 01:57:32;;;;;;;14.97;9.23;;;-2.50;99.90;;;;;;4998603;28;20215;-58
2021/01/25 01:59:58;;;;;;;16.13;9.90;;;-2.50;99.90;;;;;;4993234;28;20984;-60
2021/01/25 02:02:23;;;;;;;18.20;9.53;;;-2.50;99.90;;;;;;4990190;28;20430;-60
2021/01/25 02:04:49;;;;;;;18.57;9.87;;;-2.50;99.90;;;;;;5003256;28;20656;-58
2021/01/25 02:07:16;;;;;;;18.07;10.40;;;-2.50;99.90;;;;;;5008232;28;20605;-58
2021/01/25 02:09:45;;;;;;;15.70;9.77;;;-2.40;99.90;;;;;;4994827;28;20434;-59
2021/01/25 02:12:12;;;;;;;17.97;10.13;;;-2.40;99.90;;;;;;4999671;28;20467;-59
2021/01/25 02:14:41;;;;;;;16.47;9.53;;;-2.40;99.90;;;;;;5007653;28;20419;-59
2021/01/25 02:17:07;;;;;;;17.90;9.90;;;-2.40;99.90;;;;;;4994127;28;20468;-58
2021/01/25 02:19:45;;;;;;;17.33;9.77;;;-2.30;99.90;;;;;;5017785;28;20523;-59
2021/01/25 02:22:35;;;;;;;13.00;9.30;;;-2.30;99.90;;;;;;4997782;28;20464;-59
2021/01/25 02:25:23;;;;;;;12.50;8.90;;;-2.30;99.90;;;;;;5006944;28;20425;-58
2021/01/25 02:27:49;;;;;;;20.27;9.67;;;-2.30;99.90;;;;;;5006026;28;20433;-60
2021/01/25 02:30:17;;;;;;;27.83;9.90;;;-2.30;99.90;;;;;;5004957;28;20887;-60
2021/01/25 02:32:45;;;;;;;16.90;9.60;;;-2.30;99.90;;;;;;4999297;28;21106;-59
2021/01/25 02:35:15;;;;;;;14.63;9.07;;;-2.30;99.90;;;;;;5000113;28;20441;-61
2021/01/25 02:37:42;;;;;;;17.70;8.63;;;-2.30;99.90;;;;;;5007878;28;20545;-60
2021/01/25 02:40:10;;;;;;;15.73;9.37;;;-2.30;99.90;;;;;;4999473;28;20430;-59
2021/01/25 02:42:37;;;;;;;17.00;9.30;;;-2.40;99.90;;;;;;5010382;28;20423;-59
2021/01/25 02:45:05;;;;;;;17.13;9.40;;;-2.40;99.90;;;;;;5001241;28;20524;-59
2021/01/25 02:47:34;;;;;;;13.00;7.57;;;-2.40;99.90;;;;;;5001912;28;20499;-60
2021/01/25 02:49:59;;;;;;;14.70;7.97;;;-2.40;99.90;;;;;;4997218;28;20845;-58
2021/01/25 02:52:25;;;;;;;13.70;8.90;;;-2.30;99.90;;;;;;5002971;28;20729;-60
2021/01/25 02:54:52;;;;;;;13.07;7.63;;;-2.30;99.90;;;;;;5003474;28;20193;-59
2021/01/25 02:57:19;;;;;;;13.13;7.77;;;-2.20;99.90;;;;;;5005218;28;21025;-59
2021/01/25 02:59:47;;;;;;;14.03;7.50;;;-2.20;99.90;;;;;;5004747;28;20215;-59
2021/01/25 03:02:14;;;;;;;15.10;8.47;;;-2.10;99.90;;;;;;5004415;28;20544;-59
2021/01/25 03:04:40;;;;;;;12.50;8.03;;;-2.10;99.90;;;;;;5003847;28;20502;-60
2021/01/25 03:07:06;;;;;;;14.90;8.50;;;-2.00;99.90;;;;;;5001555;28;20863;-59
2021/01/25 03:09:33;;;;;;;15.90;8.13;;;-2.00;99.90;;;;;;5001457;28;20429;-59
2021/01/25 03:12:02;;;;;;;13.83;7.90;;;-2.00;99.90;;;;;;5017696;23;20722;-56
2021/01/25 03:14:28;;;;;;;10.27;6.90;;;-1.90;99.90;;;;;;5009104;28;20420;-55
2021/01/25 03:16:54;;;;;;;9.50;6.17;;;-1.90;99.90;;;;;;5009741;28;20438;-54
2021/01/25 03:19:20;;;;;;;8.83;5.33;;;-1.80;99.90;;;;;;5009176;28;20476;-55
2021/01/25 03:21:52;;;;;;;5.67;4.90;;;-1.80;99.90;;;;;;5010649;28;20484;-57
2021/01/25 03:24:18;;;;;;;7.20;4.67;;;-1.70;99.90;;;;;;5011478;28;20919;-55
2021/01/25 03:26:45;;;;;;;5.90;4.83;;;-1.60;99.90;;;;;;5000881;28;20978;-57
2021/01/25 03:29:11;;;;;;;5.30;4.73;;;-1.60;99.90;;;;;;4999778;28;20440;-56
2021/01/25 03:31:37;;;;;;;6.43;4.90;;;-1.50;99.90;;;;;;4997691;28;20498;-55
2021/01/25 03:34:04;;;;;;;6.37;4.93;;;-1.50;99.90;;;;;;5003004;28;20684;-57
2021/01/25 03:36:30;;;;;;;7.93;5.47;;;-1.50;99.90;;;;;;4991694;28;20432;-57
2021/01/25 03:38:57;;;;;;;6.57;5.47;;;-1.40;99.90;;;;;;5004769;28;20457;-56
2021/01/25 03:41:23;;;;;;;7.23;5.13;;;-1.40;99.90;;;;;;4989635;28;20198;-54
2021/01/25 03:43:49;;;;;;;7.27;4.90;;;-1.40;99.90;;;;;;4991662;28;20410;-55
2021/01/25 03:46:15;;;;;;;7.33;5.67;;;-1.30;99.90;;;;;;4990198;28;20742;-56
2021/01/25 03:48:41;;;;;;;13.43;5.40;;;-1.30;99.90;;;;;;4990253;28;20967;-56
2021/01/25 03:51:06;;;;;;;5.60;5.00;;;-1.30;99.90;;;;;;5006917;28;20461;-56
2021/01/25 03:53:33;;;;;;;7.17;5.60;;;-1.30;99.90;;;;;;4999510;28;20194;-56
2021/01/25 03:55:59;;;;;;;7.30;5.50;;;-1.30;99.90;;;;;;5007539;28;20595;-57
2021/01/25 03:58:28;;;;;;;7.00;5.40;;;-1.30;99.90;;;;;;5009594;28;20531;-56
2021/01/25 04:00:54;;;;;;;8.23;5.70;;;-1.20;99.90;;;;;;5004423;28;20442;-56
2021/01/25 04:03:20;;;;;;;9.23;5.20;;;-1.20;99.90;;;;;;5004825;28;20973;-53
2021/01/25 04:05:46;;;;;;;7.70;5.80;;;-1.20;99.90;;;;;;5019946;28;20972;-56
2021/01/25 04:08:13;;;;;;;5.87;4.63;;;-1.20;99.90;;;;;;4998862;28;20620;-58
2021/01/25 04:10:38;;;;;;;7.00;5.03;;;-1.20;99.90;;;;;;5006094;28;20958;-57
2021/01/25 04:13:04;;;;;;;7.00;5.10;;;-1.20;99.90;;;;;;5004090;28;20485;-56
2021/01/25 04:15:30;;;;;;;6.10;4.83;;;-1.20;99.90;;;;;;5002550;28;20572;-56
2021/01/25 04:17:56;;;;;;;6.60;5.40;;;-1.20;99.90;;;;;;4998371;28;20544;-58
2021/01/25 04:20:23;;;;;;;7.80;5.33;;;-1.20;99.90;;;;;;5000033;28;20583;-55
2021/01/25 04:22:48;;;;;;;5.57;4.60;;;-1.20;99.90;;;;;;4999926;28;20302;-54
2021/01/25 04:25:14;;;;;;;7.30;5.70;;;-1.20;99.90;;;;;;4995258;28;20542;-57
2021/01/25 04:27:40;;;;;;;6.20;5.10;;;-1.10;99.90;;;;;;4999559;28;20194;-58
2021/01/25 04:30:08;;;;;;;5.50;5.00;;;-1.20;99.90;;;;;;5002049;28;20437;-54
2021/01/25 04:32:37;;;;;;;6.87;5.30;;;-1.20;99.90;;;;;;4994792;28;20222;-53
2021/01/25 04:35:08;;;;;;;6.77;5.17;;;-1.20;99.90;;;;;;5006639;28;20522;-57
2021/01/25 04:37:34;;;;;;;7.03;5.60;;;-1.10;99.90;;;;;;5005054;28;21083;-56
2021/01/25 04:40:00;;;;;;;6.43;5.40;;;-1.10;99.90;;;;;;4989220;28;20503;-53
2021/01/25 04:42:26;;;;;;;6.17;5.33;;;-1.20;99.90;;;;;;4997193;28;20206;-56
2021/01/25 04:44:52;;;;;;;7.63;5.67;;;-1.10;99.90;;;;;;4989985;28;20280;-56
2021/01/25 04:47:23;;;;;;;7.10;5.50;;;-1.10;99.90;;;;;;4999899;28;20433;-57
2021/01/25 04:49:52;;;;;;;7.97;5.10;;;-1.20;99.90;;;;;;5004190;28;20858;-55
2021/01/25 04:52:18;;;;;;;9.10;5.73;;;-1.10;99.90;;;;;;5016822;28;20482;-59
2021/01/25 04:54:45;;;;;;;8.93;6.43;;;-1.10;99.90;;;;;;5016184;28;20467;-60
2021/01/25 04:57:14;;;;;;;11.33;5.97;;;-1.10;99.90;;;;;;5009370;28;20587;-56
2021/01/25 04:59:44;;;;;;;7.70;5.83;;;-1.10;99.90;;;;;;5010867;28;20437;-57
2021/01/25 05:02:10;;;;;;;7.80;5.13;;;-1.10;99.90;;;;;;5022792;28;20463;-57
2021/01/25 05:04:36;;;;;;;7.00;5.17;;;-1.00;99.90;;;;;;5026850;28;20423;-56
2021/01/25 05:07:02;;;;;;;8.70;6.20;;;-1.10;99.90;;;;;;5021369;28;20432;-58
2021/01/25 05:09:28;;;;;;;6.07;5.10;;;-1.10;99.90;;;;;;5006094;28;20433;-56
2021/01/25 05:11:58;;;;;;;8.30;5.80;;;-1.00;99.90;;;;;;4997940;28;20501;-55
2021/01/25 05:14:24;;;;;;;8.90;4.70;;;-1.00;99.90;;;;;;4993209;28;20854;-56
2021/01/25 05:16:49;;;;;;;8.07;5.03;;;-1.00;99.90;;;;;;5007150;28;20524;-55
2021/01/25 05:19:15;;;;;;;6.80;5.53;;;-1.00;99.90;;;;;;5000039;28;20483;-54
2021/01/25 05:21:43;;;;;;;6.33;5.07;;;-1.00;99.90;;;;;;5000086;28;20636;-56
2021/01/25 05:24:11;;;;;;;7.03;5.10;;;-1.00;99.90;;;;;;5024360;28;20202;-56
2021/01/25 05:27:09;;;;;;;8.90;5.97;;;-1.00;99.90;;;;;;5010346;28;20954;-55
2021/01/25 05:29:35;;;;;;;8.83;5.63;;;-1.00;99.90;;;;;;4967668;28;20920;-56
2021/01/25 05:32:03;;;;;;;12.90;6.80;;;-1.00;99.90;;;;;;4997303;28;20506;-57
2021/01/25 05:34:29;;;;;;;10.53;6.60;;;-1.00;99.90;;;;;;5008883;28;20226;-55
2021/01/25 05:36:55;;;;;;;8.57;6.00;;;-1.00;99.90;;;;;;5010280;28;20519;-56
2021/01/25 05:39:29;;;;;;;7.63;5.70;;;-0.90;99.90;;;;;;5009963;28;20618;-56
2021/01/25 05:41:57;;;;;;;13.20;7.03;;;-0.90;99.90;;;;;;4994603;28;20217;-57
2021/01/25 05:44:23;;;;;;;7.13;5.53;;;-0.90;99.90;;;;;;5007515;28;20437;-56
2021/01/25 05:46:50;;;;;;;6.73;5.53;;;-0.90;99.90;;;;;;5008087;28;20439;-55
2021/01/25 05:49:25;;;;;;;9.33;6.37;;;-0.90;99.90;;;;;;5010713;28;20441;-57
2021/01/25 05:51:54;;;;;;;11.43;6.43;;;-0.90;99.90;;;;;;5006803;28;20213;-59
2021/01/25 05:54:24;;;;;;;10.80;7.50;;;-0.90;99.90;;;;;;5001225;28;20447;-57
2021/01/25 05:56:51;;;;;;;10.00;6.93;;;-0.90;99.90;;;;;;4995212;28;20423;-57
2021/01/25 05:59:17;;;;;;;10.93;6.53;;;-0.90;99.90;;;;;;4996374;28;20940;-56
2021/01/25 06:01:43;;;;;;;13.57;8.50;;;-0.90;99.90;;;;;;4987683;28;20545;-58
2021/01/25 06:04:30;;;;;;;9.53;6.47;;;-0.90;99.90;;;;;;5006394;28;20269;-57
2021/01/25 06:07:07;;;;;;;10.20;7.67;;;-0.80;99.90;;;;;;5004290;28;20456;-58
2021/01/25 06:09:52;;;;;;;10.23;6.87;;;-0.80;99.90;;;;;;5004381;28;20430;-57
2021/01/25 06:12:24;;;;;;;10.37;7.00;;;-0.80;99.90;;;;;;4997413;28;20534;-57
2021/01/25 06:15:02;;;;;;;8.33;6.00;;;-0.70;99.90;;;;;;5006209;28;20952;-57
2021/01/25 06:17:34;;;;;;;9.40;5.93;;;-0.70;99.90;;;;;;4996773;28;20575;-57
2021/01/25 06:20:14;;;;;;;9.13;5.87;;;-0.70;99.90;;;;;;4998465;28;20440;-58
2021/01/25 06:22:39;;;;;;;9.17;6.50;;;-0.70;99.90;;;;;;4997870;28;20452;-57
2021/01/25 06:25:07;;;;;;;9.00;6.10;;;-0.70;99.90;;;;;;5001216;28;20495;-57
2021/01/25 06:27:33;;;;;;;10.77;5.87;;;-0.70;99.90;;;;;;4985083;28;20186;-57
2021/01/25 06:30:00;;;;;;;9.87;6.00;;;-0.70;99.90;;;;;;4995875;28;22183;-57
2021/01/25 06:32:34;;;;;;;8.87;6.13;;;-0.70;99.90;;;;;;4992629;28;20459;-58
2021/01/25 06:35:13;;;;;;;7.87;5.73;;;-0.70;99.90;;;;;;4991994;28;20440;-58
2021/01/25 06:37:39;;;;;;;14.80;6.60;;;-0.70;99.90;;;;;;5008092;28;20456;-61
2021/01/25 06:40:12;;;;;;;8.73;5.90;;;-0.60;99.90;;;;;;5020879;28;20464;-61
2021/01/25 06:42:40;;;;;;;9.33;6.33;;;-0.60;99.90;;;;;;5013262;28;20461;-59
2021/01/25 06:45:07;;;;;;;9.03;6.47;;;-0.60;99.90;;;;;;5014707;28;20436;-62
2021/01/25 06:47:35;;;;;;;10.90;6.97;;;-0.60;99.90;;;;;;5003817;28;20540;-57
2021/01/25 06:50:02;;;;;;;8.13;5.67;;;-0.60;99.90;;;;;;4995556;28;20440;-59
2021/01/25 06:52:34;;;;;;;13.60;6.60;;;-0.50;99.90;;;;;;5000718;28;20565;-61
2021/01/25 06:55:04;;;;;;;8.73;6.53;;;-0.50;99.90;;;;;;5003006;28;20445;-58
2021/01/25 06:57:33;;;;;;;8.20;5.47;;;-0.50;99.90;;;;;;5004091;28;20785;-59
2021/01/25 07:00:06;;;;;;;8.60;5.87;;;-0.50;99.90;;;;;;4994505;28;20451;-59
2021/01/25 07:02:31;;;;;;;11.70;7.50;;;-0.50;99.90;;;;;;4993035;28;20459;-58
2021/01/25 07:04:58;;;;;;;10.40;7.50;;;-0.50;99.90;;;;;;4998137;28;20519;-60
2021/01/25 07:07:30;;;;;;;14.57;7.63;;;-0.50;99.90;;;;;;4994640;28;20675;-58
2021/01/25 07:09:57;;;;;;;11.30;6.83;;;-0.50;99.90;;;;;;4999515;28;20436;-58
2021/01/25 07:12:24;;;;;;;11.60;7.77;;;-0.50;99.90;;;;;;4992778;28;20805;-58
2021/01/25 07:14:53;;;;;;;14.53;9.13;;;-0.60;99.90;;;;;;5000632;28;20424;-58
2021/01/25 07:17:20;;;;;;;17.00;9.13;;;-0.50;99.90;;;;;;4994672;28;20792;-59
2021/01/25 07:19:46;;;;;;;12.80;8.67;;;-0.50;99.90;;;;;;4994961;28;20542;-60
2021/01/25 07:22:12;;;;;;;14.07;9.20;;;-0.50;99.90;;;;;;4993707;28;20587;-60
2021/01/25 07:24:39;;;;;;;18.00;9.87;;;-0.50;99.90;;;;;;4992327;28;20432;-59
2021/01/25 07:27:06;;;;;;;13.83;8.90;;;-0.50;99.90;;;;;;4991575;28;20920;-59
2021/01/25 07:29:33;;;;;;;14.37;7.70;;;-0.50;99.90;;;;;;5008908;28;20481;-60
2021/01/25 07:31:59;;;;;;;14.77;8.63;;;-0.50;99.90;;;;;;4996971;28;20454;-60
2021/01/25 07:34:30;;;;;;;10.43;7.53;;;-0.40;99.90;;;;;;4995799;28;20504;-60
2021/01/25 07:36:56;;;;;;;13.03;7.83;;;-0.40;99.90;;;;;;4999123;28;20435;-60
2021/01/25 07:39:22;;;;;;;12.50;7.40;;;-0.40;99.90;;;;;;4995403;28;20480;-59
2021/01/25 07:41:48;;;;;;;13.03;6.33;;;-0.30;99.90;;;;;;4977476;28;21036;-59
2021/01/25 07:44:23;;;;;;;10.23;5.10;;;-0.30;99.90;;;;;;5042144;27;20545;-59
2021/01/25 07:46:50;;;;;;;6.10;3.93;;;-0.30;99.90;;;;;;5035478;28;20419;-60
2021/01/25 07:49:26;;;;;;;4.53;3.70;;;-0.20;99.90;;;;;;5035460;28;20517;-58
2021/01/25 07:51:51;;;;;;;7.83;4.13;;;-0.20;99.90;;;;;;5035887;28;20459;-60
2021/01/25 07:54:17;;;;;;;4.33;3.30;;;-0.20;99.90;;;;;;5031855;28;20466;-65
2021/01/25 07:56:43;;;;;;;5.60;3.47;;;-0.20;99.90;;;;;;5033699;28;20196;-60
2021/01/25 07:59:16;;;;;;;3.50;3.13;;;-0.20;99.90;;;;;;5033914;28;20443;-60
2021/01/25 08:01:51;;;;;;;3.43;2.87;;;-0.20;99.90;;;;;;5033710;28;20322;-56
2021/01/25 08:04:21;;;;;;;3.80;2.90;;;-0.10;99.90;;;;;;5030602;28;21366;-60
2021/01/25 08:06:48;;;;;;;3.43;2.50;;;-0.10;99.90;;;;;;5031094;28;20428;-62
2021/01/25 08:09:18;;;;;;;3.30;2.70;;;-0.10;99.90;;;;;;5034001;28;20506;-61
2021/01/25 08:11:45;;;;;;;3.03;2.50;;;-0.10;99.90;;;;;;5033987;28;20452;-60
2021/01/25 08:14:29;;;;;;;3.03;2.73;;;-0.10;99.90;;;;;;5030674;28;20550;-60
2021/01/25 08:17:05;;;;;;;2.80;2.60;;;0.00;99.90;;;;;;5032591;28;20478;-60
2021/01/25 08:19:55;;;;;;;3.33;2.83;;;0.00;99.90;;;;;;5028969;28;20431;-61
2021/01/25 08:22:51;;;;;;;2.53;2.33;;;0.00;99.90;;;;;;5030800;28;20516;-61
2021/01/25 08:25:19;;;;;;;4.77;3.43;;;0.00;99.90;;;;;;5031725;28;20435;-60
2021/01/25 08:27:56;;;;;;;3.30;3.00;;;0.10;99.90;;;;;;5038936;28;20416;-59
2021/01/25 08:30:23;;;;;;;2.37;2.17;;;0.10;99.90;;;;;;5034580;28;20480;-60
2021/01/25 08:32:55;;;;;;;2.80;2.10;;;0.10;99.90;;;;;;5027360;28;20841;-61
2021/01/25 08:35:50;;;;;;;2.40;2.23;;;0.20;99.90;;;;;;5028760;28;20415;-60
2021/01/25 08:38:30;;;;;;;3.53;2.70;;;0.20;99.90;;;;;;5029410;28;20560;-61
2021/01/25 08:41:00;;;;;;;2.40;2.20;;;0.30;99.90;;;;;;5031690;28;20473;-60
2021/01/25 08:43:32;;;;;;;7.00;2.33;;;0.30;99.90;;;;;;5048062;28;20557;-60
2021/01/25 08:46:12;;;;;;;7.37;2.17;;;0.30;99.90;;;;;;5047968;28;20435;-64
2021/01/25 08:48:38;;;;;;;3.13;2.03;;;0.30;99.90;;;;;;5047291;28;20540;-62
2021/01/25 08:51:14;;;;;;;2.30;2.10;;;0.40;99.90;;;;;;5050426;28;20459;-61
2021/01/25 08:53:43;;;;;;;3.00;2.20;;;0.40;99.90;;;;;;5053696;28;20494;-62
2021/01/25 08:56:19;;;;;;;1.70;1.60;;;0.40;99.90;;;;;;5040737;28;20426;-60
2021/01/25 08:58:45;;;;;;;2.90;1.70;;;0.40;99.90;;;;;;5022577;28;20438;-61
2021/01/25 09:01:27;;;;;;;1.70;1.60;;;0.40;99.90;;;;;;5043987;28;20467;-61
2021/01/25 09:03:54;;;;;;;1.73;1.20;;;0.50;99.90;;;;;;5037310;28;20439;-60
2021/01/25 09:06:22;;;;;;;1.60;1.50;;;0.50;99.90;;;;;;5000121;28;21235;-60
2021/01/25 09:08:48;;;;;;;2.30;1.40;;;0.50;99.90;;;;;;5017843;28;20444;-61
2021/01/25 09:14:00;;;;;;;1.67;1.33;;;0.60;99.90;;;;;;5015112;28;20320;-61
2021/01/25 09:16:25;;;;;;;1.57;1.47;;;0.60;99.90;;;;;;5005493;28;20453;-60
2021/01/25 09:18:51;;;;;;;1.43;1.33;;;0.60;99.90;;;;;;5024781;28;20196;-59
2021/01/25 09:21:17;;;;;;;1.30;1.20;;;0.60;99.90;;;;;;5022993;28;20193;-61
2021/01/25 09:23:43;;;;;;;4.00;1.70;;;0.60;99.90;;;;;;5014130;28;20461;-59
2021/01/25 09:26:16;;;;;;;4.80;2.03;;;0.50;99.90;;;;;;5017025;28;20634;-60
2021/01/25 09:28:42;;;;;;;1.17;1.13;;;0.60;99.90;;;;;;5002211;28;20508;-60
2021/01/25 09:31:08;;;;;;;3.07;1.30;;;0.60;99.90;;;;;;5001775;28;20829;-59
2021/01/25 09:33:34;;;;;;;1.37;1.27;;;0.60;99.90;;;;;;5017174;28;20228;-59
2021/01/25 09:36:00;;;;;;;2.40;1.30;;;0.70;99.90;;;;;;5001296;28;20440;-59
2021/01/25 09:38:26;;;;;;;1.30;1.20;;;0.60;99.90;;;;;;5024251;28;20560;-59
2021/01/25 09:40:51;;;;;;;1.20;1.10;;;0.70;99.90;;;;;;5002668;28;20435;-61
2021/01/25 09:43:17;;;;;;;1.33;1.23;;;0.70;99.90;;;;;;5019062;28;20217;-59
2021/01/25 09:45:43;;;;;;;3.03;2.13;;;0.70;99.90;;;;;;5004591;28;20581;-60
2021/01/25 09:48:09;;;;;;;2.40;1.30;;;0.70;99.90;;;;;;5017418;28;20187;-61
2021/01/25 09:50:34;;;;;;;1.30;1.20;;;0.80;99.90;;;;;;5001361;28;20202;-60
2021/01/25 09:53:00;;;;;;;1.40;1.30;;;0.80;99.90;;;;;;5023424;28;20465;-58
2021/01/25 09:55:26;;;;;;;1.70;1.57;;;0.90;99.90;;;;;;5022712;28;20174;-60
2021/01/25 09:57:52;;;;;;;10.33;1.33;;;0.90;99.90;;;;;;5022522;28;20173;-62
2021/01/25 10:00:18;;;;;;;1.80;1.20;;;1.00;99.90;;;;;;5021401;28;20181;-61
2021/01/25 10:02:44;;;;;;;0.83;0.83;;;1.00;99.90;;;;;;5022289;28;20555;-62
2021/01/25 10:05:11;;;;;;;1.10;1.10;;;1.10;99.20;;;;;;5019407;28;21131;-58
2021/01/25 10:07:36;;;;;;;4.33;1.20;;;1.10;99.00;;;;;;5018554;28;20755;-59
2021/01/25 10:10:08;;;;;;;1.40;1.30;;;1.20;99.30;;;;;;5022827;28;20523;-64
2021/01/25 10:12:34;;;;;;;1.70;1.60;;;1.30;99.40;;;;;;5003904;28;21006;-59
2021/01/25 10:15:00;;;;;;;1.40;1.30;;;1.30;99.10;;;;;;5019771;28;20444;-59
2021/01/25 10:17:28;;;;;;;1.40;1.30;;;1.40;98.70;;;;;;5020767;28;20176;-60
2021/01/25 10:19:55;;;;;;;1.40;1.30;;;1.40;98.10;;;;;;5021755;28;20176;-59
2021/01/25 10:22:21;;;;;;;1.00;1.00;;;1.50;98.50;;;;;;5020493;28;20526;-61
2021/01/25 10:24:47;;;;;;;1.30;1.20;;;1.60;98.60;;;;;;5019956;28;20517;-60
2021/01/25 10:27:13;;;;;;;1.10;1.00;;;1.70;98.60;;;;;;5021177;28;20543;-61
2021/01/25 10:29:38;;;;;;;2.00;1.00;;;1.80;97.60;;;;;;5020689;28;20201;-61
2021/01/25 10:32:04;;;;;;;2.33;1.03;;;1.70;96.80;;;;;;5021535;28;20484;-59
2021/01/25 10:34:30;;;;;;;1.30;1.20;;;1.80;96.90;;;;;;5025823;28;20260;-60
2021/01/25 10:36:56;;;;;;;1.27;1.17;;;1.80;97.10;;;;;;5020442;28;20444;-59
2021/01/25 10:39:22;;;;;;;2.40;1.37;;;1.90;97.50;;;;;;5020209;28;20178;-60
2021/01/25 10:41:47;;;;;;;1.27;0.90;;;2.00;96.50;;;;;;5005593;28;20205;-60
2021/01/25 10:44:17;;;;;;;1.10;1.00;;;2.00;96.50;;;;;;5002466;28;20648;-61
2021/01/25 10:46:43;;;;;;;1.03;0.93;;;2.10;96.70;;;;;;5026805;28;20169;-60
2021/01/25 10:49:09;;;;;;;1.33;1.23;;;2.30;96.80;;;;;;5024959;28;20431;-60
2021/01/25 10:51:35;;;;;;;0.97;0.97;;;2.50;96.40;;;;;;5021335;28;21981;-60
2021/01/25 10:54:00;;;;;;;0.90;0.90;;;2.60;96.30;;;;;;5022361;28;20919;-59
2021/01/25 10:56:26;;;;;;;1.20;1.07;;;2.80;96.00;;;;;;5002965;28;20540;-60
2021/01/25 10:58:52;;;;;;;1.10;1.10;;;2.80;94.40;;;;;;5017348;28;20216;-60
2021/01/25 11:01:18;;;;;;;0.97;0.90;;;2.80;94.50;;;;;;5022008;28;20417;-60
2021/01/25 11:03:44;;;;;;;1.87;1.70;;;2.90;94.10;;;;;;5022928;28;20575;-60
2021/01/25 11:06:20;;;;;;;0.93;0.93;;;2.80;93.60;;;;;;5024850;28;20228;-61
2021/01/25 11:08:46;;;;;;;1.13;1.03;;;2.70;93.80;;;;;;4984171;28;20538;-60
2021/01/25 11:11:12;;;;;;;1.23;1.13;;;2.70;94.30;;;;;;5001571;28;20752;-59
2021/01/25 11:13:38;;;;;;;1.33;1.23;;;2.70;94.90;;;;;;5017277;28;20280;-60
2021/01/25 11:16:05;;;;;;;0.93;0.93;;;2.70;94.00;;;;;;5019194;28;20669;-61
2021/01/25 11:18:30;;;;;;;1.20;1.10;;;2.70;93.50;;;;;;5024736;28;20569;-59
2021/01/25 11:20:59;;;;;;;2.93;1.30;;;2.80;93.90;;;;;;5002296;28;20548;-60
2021/01/25 11:23:26;;;;;;;1.27;1.13;;;2.90;94.00;;;;;;5010448;28;20196;-61
2021/01/25 11:25:53;;;;;;;1.20;1.10;;;2.90;93.40;;;;;;5010973;28;20454;-61
2021/01/25 11:28:22;;;;;;;1.77;1.40;;;2.90;93.10;;;;;;4999522;28;20806;-60
2021/01/25 11:30:50;;;;;;;1.50;1.40;;;2.90;93.30;;;;;;5021720;28;20994;-60
2021/01/25 11:33:16;;;;;;;1.87;1.40;;;2.90;92.80;;;;;;5016375;28;21026;-60
2021/01/25 11:35:42;;;;;;;1.57;1.10;;;2.80;92.20;;;;;;5019475;28;20422;-60
2021/01/25 11:38:08;;;;;;;3.47;2.07;;;2.70;92.90;;;;;;5023734;28;20425;-61
2021/01/25 11:40:34;;;;;;;7.10;3.43;;;2.60;92.70;;;;;;5008079;28;20195;-60
2021/01/25 11:42:59;;;;;;;2.57;1.90;;;2.60;93.10;;;;;;5021357;28;20206;-59
2021/01/25 11:45:25;;;;;;;1.67;1.47;;;2.50;93.40;;;;;;5001136;28;20694;-59
2021/01/25 11:47:50;;;;;;;1.70;1.10;;;2.50;93.20;;;;;;5022037;28;20220;-59
2021/01/25 11:50:16;;;;;;;1.50;1.10;;;2.40;93.50;;;;;;5022831;28;20185;-61
2021/01/25 11:52:42;;;;;;;1.10;1.00;;;2.40;94.00;;;;;;5023255;28;20345;-59
2021/01/25 11:55:08;;;;;;;2.93;1.10;;;2.40;93.60;;;;;;5005578;28;20210;-58
2021/01/25 11:57:34;;;;;;;1.30;1.20;;;2.40;93.40;;;;;;5023180;28;20498;-58
2021/01/25 12:00:00;;;;;;;1.00;0.80;;;2.70;93.40;;;;;;5024116;28;20426;-60
2021/01/25 12:02:26;;;;;;;1.10;1.10;;;3.10;93.00;;;;;;5023022;28;20287;-59
2021/01/25 12:04:52;;;;;;;1.00;0.80;;;3.40;91.80;;;;;;5019208;28;20195;-60
2021/01/25 12:07:22;;;;;;;4.10;2.17;;;3.50;82.90;;;;;;5005837;28;20430;-60
2021/01/25 12:09:48;;;;;;;2.73;1.77;;;3.50;85.00;;;;;;5018868;28;20469;-58
2021/01/25 12:12:13;;;;;;;3.13;1.77;;;3.50;88.00;;;;;;5025061;28;20482;-57
2021/01/25 12:14:39;;;;;;;1.80;1.30;;;3.70;84.20;;;;;;5022841;28;20242;-60
2021/01/25 12:17:05;;;;;;;1.90;1.10;;;3.60;83.10;;;;;;5024676;28;20449;-59
2021/01/25 12:19:31;;;;;;;1.90;1.27;;;3.60;80.30;;;;;;5020034;28;20194;-60
2021/01/25 12:21:57;;;;;;;9.13;4.70;;;3.40;80.70;;;;;;5023943;28;20582;-59
2021/01/25 12:24:22;;;;;;;1.80;1.40;;;3.30;83.90;;;;;;5024518;28;20285;-59
2021/01/25 12:26:50;;;;;;;1.43;1.33;;;3.20;84.90;;;;;;5019728;28;20203;-60
2021/01/25 12:29:16;;;;;;;2.80;1.47;;;3.10;85.40;;;;;;5022357;28;20708;-60
2021/01/25 12:31:42;;;;;;;5.50;2.17;;;3.00;87.10;;;;;;5027011;28;20422;-59
2021/01/25 12:34:08;;;;;;;1.83;1.57;;;2.90;88.60;;;;;;5008461;28;20465;-59
2021/01/25 12:36:37;;;;;;;2.80;1.77;;;2.80;88.60;;;;;;5009275;28;20566;-60
2021/01/25 12:39:04;;;;;;;1.60;1.50;;;2.70;90.10;;;;;;5007545;28;20194;-60
2021/01/25 12:41:30;;;;;;;2.40;1.67;;;2.70;86.80;;;;;;5008030;28;20444;-60
2021/01/25 12:43:56;;;;;;;2.50;1.57;;;2.60;87.90;;;;;;5027415;28;20482;-59
2021/01/25 12:46:22;;;;;;;1.30;1.20;;;2.50;87.90;;;;;;5023926;28;20835;-59
2021/01/25 12:48:48;;;;;;;1.47;0.93;;;2.40;88.80;;;;;;5007765;28;20281;-60
2021/01/25 12:51:15;;;;;;;1.13;1.03;;;2.30;87.30;;;;;;5027586;28;20508;-61